Time;durP1;ratioP1;P1;durP2;ratioP2;P2;SDS_P1;SDS_P2;PMS_P1;PMS_P2;Temp;Humidity;BMP_temperature;BMP_pressure;BME280_temperature;BME280_humidity;BME280_pressure;Samples;Min_cycle;Max_cycle;Signal;HPM_P1;HPM_P2
2022/07/21 00:01:37;;;;;;;10.25;8.70;;;;;;;20.66;71.13;101659.84;5055637;28;20383;-73
2022/07/21 00:04:02;;;;;;;11.35;8.70;;;;;;;20.64;71.27;101656.44;5054978;28;20106;-73
2022/07/21 00:06:28;;;;;;;8.93;7.55;;;;;;;20.64;71.07;101651.13;5053182;28;20119;-74
2022/07/21 00:08:53;;;;;;;8.63;7.10;;;;;;;20.61;69.87;101652.16;5052373;28;20033;-73
2022/07/21 00:11:18;;;;;;;9.77;7.57;;;;;;;20.59;70.56;101648.72;5051294;28;20123;-73
2022/07/21 00:13:44;;;;;;;9.75;7.28;;;;;;;20.56;70.56;101651.56;5053205;28;20438;-73
2022/07/21 00:16:09;;;;;;;9.05;7.70;;;;;;;20.55;70.41;101652.50;5057054;28;20400;-74
2022/07/21 00:18:35;;;;;;;7.82;6.70;;;;;;;20.52;70.20;101659.72;5051681;28;20029;-74
2022/07/21 00:21:00;;;;;;;8.52;6.85;;;;;;;20.46;70.42;101653.84;5049495;28;20070;-73
2022/07/21 00:23:26;;;;;;;9.32;6.85;;;;;;;20.44;70.13;101655.72;5057308;28;20040;-74
2022/07/21 00:25:52;;;;;;;7.82;6.80;;;;;;;20.41;69.73;101655.06;5053916;28;20017;-73
2022/07/21 00:28:18;;;;;;;8.18;6.70;;;;;;;20.40;69.93;101658.63;5059260;28;20530;-73
2022/07/21 00:30:44;;;;;;;8.27;6.40;;;;;;;20.38;69.90;101665.78;5054176;28;20491;-73
2022/07/21 00:33:10;;;;;;;7.47;6.22;;;;;;;20.35;70.40;101653.56;5055189;28;20037;-73
2022/07/21 00:35:35;;;;;;;8.20;6.03;;;;;;;20.35;70.27;101658.03;5050287;28;20032;-74
2022/07/21 00:38:01;;;;;;;7.78;6.10;;;;;;;20.32;70.18;101651.13;5057142;28;20099;-73
2022/07/21 00:40:27;;;;;;;7.03;5.93;;;;;;;20.31;70.48;101650.25;5029939;28;20040;-73
2022/07/21 00:42:52;;;;;;;7.63;6.45;;;;;;;20.29;70.37;101648.63;5035135;28;20033;-73
2022/07/21 00:45:18;;;;;;;7.55;6.20;;;;;;;20.27;70.39;101642.59;5057295;28;20032;-73
2022/07/21 00:47:44;;;;;;;8.80;6.55;;;;;;;20.23;70.21;101652.47;5057374;28;20083;-73
2022/07/21 00:50:15;;;;;;;7.65;6.28;;;;;;;20.20;70.08;101633.25;5051778;28;20071;-73
2022/07/21 00:52:41;;;;;;;7.97;6.28;;;;;;;20.19;70.84;101647.41;5055512;28;20533;-74
2022/07/21 00:55:09;;;;;;;8.75;6.85;;;;;;;20.14;70.79;101639.75;5055290;28;20036;-74
2022/07/21 00:57:35;;;;;;;7.63;6.28;;;;;;;20.12;70.50;101638.97;5049164;28;20028;-74
2022/07/21 01:00:03;;;;;;;8.95;7.00;;;;;;;20.09;71.16;101637.34;5053496;28;20027;-73
2022/07/21 01:02:31;;;;;;;8.55;6.85;;;;;;;20.07;70.89;101641.84;5055387;28;20045;-73
2022/07/21 01:04:57;;;;;;;8.70;6.75;;;;;;;20.03;71.30;101640.31;5052618;28;20017;-73
2022/07/21 01:07:23;;;;;;;9.45;6.90;;;;;;;20.00;71.47;101635.19;5053690;28;20051;-73
2022/07/21 01:09:49;;;;;;;9.52;6.75;;;;;;;19.97;71.40;101624.81;5052360;28;20039;-73
2022/07/21 01:12:15;;;;;;;8.75;7.13;;;;;;;19.95;71.29;101631.94;5059616;28;20157;-73
2022/07/21 01:14:40;;;;;;;8.32;7.13;;;;;;;19.92;71.79;101627.66;5051251;28;20430;-73
2022/07/21 01:17:06;;;;;;;10.15;7.10;;;;;;;19.89;71.79;101624.34;5059362;28;20036;-73
2022/07/21 01:19:31;;;;;;;9.05;7.13;;;;;;;19.86;71.79;101626.16;5057433;28;20269;-73
2022/07/21 01:21:57;;;;;;;8.95;7.28;;;;;;;19.83;72.42;101626.31;5039244;28;20032;-73
2022/07/21 01:24:22;;;;;;;8.35;6.65;;;;;;;19.83;72.63;101628.97;5055862;28;20096;-74
2022/07/21 01:26:50;;;;;;;8.80;7.30;;;;;;;19.80;72.34;101625.66;5060468;28;20028;-73
2022/07/21 01:29:16;;;;;;;10.38;7.53;;;;;;;19.78;72.84;101624.88;5057048;28;20029;-73
2022/07/21 01:31:44;;;;;;;9.60;8.10;;;;;;;19.76;72.87;101621.44;5036605;28;20087;-73
2022/07/21 01:34:11;;;;;;;9.93;7.68;;;;;;;19.76;73.00;101626.72;5055176;28;20039;-73
2022/07/21 01:36:37;;;;;;;9.85;7.85;;;;;;;19.74;72.81;101625.94;5056234;28;20115;-73
2022/07/21 01:41:51;;;;;;;10.98;8.25;;;;;;;19.71;72.80;101617.28;5059622;28;20047;-74
2022/07/21 01:44:16;;;;;;;10.90;8.10;;;;;;;19.69;73.07;101610.34;5055031;28;20024;-74
2022/07/21 01:46:45;;;;;;;10.30;8.48;;;;;;;19.67;73.03;101617.50;5055953;28;20880;-74
2022/07/21 01:49:12;;;;;;;9.40;8.07;;;;;;;19.65;73.00;101619.38;5058562;28;20025;-73
2022/07/21 01:51:37;;;;;;;10.75;8.27;;;;;;;19.64;73.47;101622.97;5039091;28;20498;-74
2022/07/21 01:54:04;;;;;;;10.93;7.90;;;;;;;19.64;73.21;101617.69;5053429;28;20033;-74
2022/07/21 01:56:30;;;;;;;11.57;8.20;;;;;;;19.63;73.90;101621.25;5055593;28;20039;-74
2022/07/21 01:58:56;;;;;;;11.50;8.40;;;;;;;19.62;73.96;101623.03;5058704;28;20024;-73
2022/07/21 02:01:26;;;;;;;10.15;8.45;;;;;;;19.60;74.01;101616.97;5061688;28;20424;-73
2022/07/21 02:03:52;;;;;;;10.60;8.80;;;;;;;19.60;74.38;101619.59;5059474;28;20033;-73
2022/07/21 02:06:17;;;;;;;11.23;8.57;;;;;;;19.61;74.20;101625.75;5062291;28;20036;-73
2022/07/21 02:08:43;;;;;;;9.88;8.45;;;;;;;19.61;74.54;101612.56;5056589;28;20058;-73
2022/07/21 02:11:09;;;;;;;9.90;8.35;;;;;;;19.61;74.42;101616.03;5059149;28;20032;-73
2022/07/21 02:13:35;;;;;;;9.00;7.88;;;;;;;19.60;74.32;101627.53;5056754;28;20028;-73
2022/07/21 02:16:01;;;;;;;10.23;8.52;;;;;;;19.59;74.39;101615.25;5056707;28;20419;-73
2022/07/21 02:18:27;;;;;;;10.70;8.13;;;;;;;19.58;74.44;101618.00;5053304;28;20059;-74
2022/07/21 02:20:53;;;;;;;11.02;8.52;;;;;;;19.56;74.25;101616.28;5057500;28;20048;-73
2022/07/21 02:23:19;;;;;;;11.32;8.80;;;;;;;19.54;73.90;101612.03;5057842;28;20467;-73
2022/07/21 02:25:45;;;;;;;10.45;8.57;;;;;;;19.51;74.25;101615.66;5054896;28;20025;-73
2022/07/21 02:28:11;;;;;;;9.90;8.20;;;;;;;19.51;74.40;101620.94;5054661;28;20087;-73
2022/07/21 02:30:37;;;;;;;12.40;8.60;;;;;;;19.50;74.02;101616.59;5056293;28;20025;-73
2022/07/21 02:33:03;;;;;;;10.23;8.27;;;;;;;19.50;74.44;101616.59;5055686;28;20036;-73
2022/07/21 02:35:28;;;;;;;10.00;8.20;;;;;;;19.50;74.63;101616.59;5055164;28;20032;-73
2022/07/21 02:37:54;;;;;;;11.45;8.23;;;;;;;19.51;74.74;101615.66;5056158;28;20044;-74
2022/07/21 02:40:19;;;;;;;10.63;8.23;;;;;;;19.51;74.48;101606.91;5061511;28;20056;-73
2022/07/21 02:42:44;;;;;;;11.60;8.10;;;;;;;19.50;74.21;101611.31;5056869;28;20024;-73
2022/07/21 02:45:10;;;;;;;11.70;9.05;;;;;;;19.48;74.28;101607.88;5054728;28;20032;-73
2022/07/21 02:47:52;;;;;;;11.88;8.50;;;;;;;19.47;73.85;101603.53;5057745;28;20017;-73
2022/07/21 02:50:18;;;;;;;12.85;8.57;;;;;;;19.44;74.31;101601.09;5054907;28;20037;-73
2022/07/21 02:52:44;;;;;;;12.30;9.25;;;;;;;19.44;74.09;101603.72;5054967;28;20557;-73
2022/07/21 02:55:09;;;;;;;11.73;8.93;;;;;;;19.41;74.33;101602.06;5049692;28;20037;-73
2022/07/21 02:57:34;;;;;;;10.68;8.40;;;;;;;19.41;74.62;101596.81;5056448;28;20027;-74
2022/07/21 03:00:00;;;;;;;12.15;8.82;;;;;;;19.39;74.26;101596.03;5053740;28;20098;-74
2022/07/21 03:02:25;;;;;;;10.70;8.73;;;;;;;19.37;74.37;101600.56;5055439;28;20021;-73
2022/07/21 03:04:50;;;;;;;10.23;8.20;;;;;;;19.35;74.54;101604.19;5062288;28;20038;-74
2022/07/21 03:07:15;;;;;;;11.07;8.88;;;;;;;19.35;74.79;101606.81;5052564;28;20094;-74
2022/07/21 03:09:41;;;;;;;11.00;8.75;;;;;;;19.34;74.62;101605.09;5057244;28;20032;-73
2022/07/21 03:12:07;;;;;;;10.55;8.23;;;;;;;19.33;74.54;101606.03;5053062;28;20036;-73
2022/07/21 03:14:32;;;;;;;12.40;9.10;;;;;;;19.32;74.64;101605.19;5052623;28;20175;-74
2022/07/21 03:16:58;;;;;;;12.50;8.88;;;;;;;19.33;74.53;101606.03;5051524;28;20040;-73
2022/07/21 03:19:23;;;;;;;11.35;8.63;;;;;;;19.32;74.86;101612.25;5057939;28;20157;-73
2022/07/21 03:21:49;;;;;;;11.50;8.80;;;;;;;19.33;75.11;101608.69;5053951;28;21899;-74
2022/07/21 03:24:14;;;;;;;12.60;9.55;;;;;;;19.33;74.65;101606.91;5056313;28;20024;-73
2022/07/21 03:26:39;;;;;;;11.90;9.00;;;;;;;19.34;74.99;101605.09;5057924;28;20029;-73
2022/07/21 03:29:04;;;;;;;11.90;8.98;;;;;;;19.33;75.28;101593.72;5058086;28;20035;-74
2022/07/21 03:31:30;;;;;;;11.57;9.18;;;;;;;19.31;74.89;101592.94;5050020;28;20040;-73
2022/07/21 03:33:55;;;;;;;12.43;9.07;;;;;;;19.31;74.72;101590.28;5058794;28;20182;-73
2022/07/21 03:36:22;;;;;;;12.25;8.98;;;;;;;19.32;75.03;101591.13;5058770;28;20047;-73
2022/07/21 03:38:48;;;;;;;13.07;10.05;;;;;;;19.32;75.12;101602.56;5062551;28;20155;-74
2022/07/21 03:41:13;;;;;;;12.27;9.57;;;;;;;19.31;75.10;101606.13;5050154;28;20140;-73
2022/07/21 03:43:38;;;;;;;13.63;10.05;;;;;;;19.31;75.03;101610.53;5054704;28;20035;-73
2022/07/21 03:46:03;;;;;;;13.55;10.20;;;;;;;19.31;75.37;101613.16;5053485;28;20159;-73
2022/07/21 03:48:29;;;;;;;13.30;10.52;;;;;;;19.32;75.34;101614.88;5059031;28;20035;-73
2022/07/21 03:50:54;;;;;;;14.25;10.27;;;;;;;19.33;75.31;101625.38;5055142;28;20025;-73
2022/07/21 03:53:19;;;;;;;15.13;10.20;;;;;;;19.32;75.24;101621.03;5053365;28;20016;-74
2022/07/21 03:55:45;;;;;;;14.25;10.80;;;;;;;19.34;75.46;101620.94;5049342;28;20075;-73
2022/07/21 03:58:11;;;;;;;13.73;10.73;;;;;;;19.35;75.80;101614.72;5049297;28;20142;-73
2022/07/21 04:00:40;;;;;;;14.20;10.73;;;;;;;19.35;75.56;101612.09;5053914;28;20379;-73
2022/07/21 04:03:06;;;;;;;13.73;10.10;;;;;;;19.37;75.77;101612.88;5056354;28;20048;-73
2022/07/21 04:05:32;;;;;;;13.10;10.52;;;;;;;19.36;75.67;101608.53;5055932;28;20100;-73
2022/07/21 04:07:57;;;;;;;19.27;10.60;;;;;;;19.36;75.88;101611.16;5054344;28;20184;-73
2022/07/21 04:10:29;;;;;;;14.73;10.85;;;;;;;19.36;75.41;101613.81;5053835;28;20024;-73
2022/07/21 04:12:56;;;;;;;15.05;11.13;;;;;;;19.35;76.01;101606.81;5053157;28;20499;-73
2022/07/21 04:15:22;;;;;;;13.82;10.70;;;;;;;19.35;75.57;101606.81;5054339;28;20276;-73
2022/07/21 04:17:48;;;;;;;13.90;11.05;;;;;;;19.34;75.62;101610.38;5053604;28;20255;-73
2022/07/21 04:20:14;;;;;;;13.88;11.18;;;;;;;19.33;75.39;101611.31;5044002;28;20037;-73
2022/07/21 04:22:41;;;;;;;14.40;10.82;;;;;;;19.34;75.49;101605.09;5056152;28;20035;-73
2022/07/21 04:25:07;;;;;;;14.57;11.00;;;;;;;19.33;75.99;101608.69;5059417;28;20020;-73
2022/07/21 04:27:33;;;;;;;15.45;10.65;;;;;;;19.32;75.26;101606.97;5055391;28;20043;-73
2022/07/21 04:29:59;;;;;;;14.90;11.15;;;;;;;19.31;75.70;101605.25;5054831;28;20036;-73
2022/07/21 04:32:24;;;;;;;15.13;10.40;;;;;;;19.29;75.37;101599.22;5057185;28;20028;-73
2022/07/21 04:34:49;;;;;;;13.68;10.40;;;;;;;19.29;75.29;101613.25;5055142;28;20032;-73
2022/07/21 04:37:15;;;;;;;14.65;10.68;;;;;;;19.27;75.45;101612.47;5058380;28;20089;-73
2022/07/21 04:39:40;;;;;;;15.80;10.55;;;;;;;19.25;75.25;101609.94;5056772;28;20029;-73
2022/07/21 04:42:05;;;;;;;12.73;10.00;;;;;;;19.24;75.16;101608.22;5054278;28;20041;-73
2022/07/21 04:44:31;;;;;;;12.13;9.32;;;;;;;19.22;75.50;101607.44;5060402;28;20099;-74
2022/07/21 04:46:56;;;;;;;13.32;9.65;;;;;;;19.22;75.51;101610.09;5056394;28;20115;-73
2022/07/21 04:49:22;;;;;;;12.15;9.73;;;;;;;19.21;75.29;101610.16;5059051;28;20119;-74
2022/07/21 04:51:47;;;;;;;13.10;9.15;;;;;;;19.21;75.63;101605.72;5063061;28;20480;-74
2022/07/21 04:54:15;;;;;;;12.40;9.77;;;;;;;19.20;75.71;101604.03;5063315;28;20025;-73
2022/07/21 04:56:41;;;;;;;15.57;9.25;;;;;;;19.19;75.22;101612.88;5064530;28;20040;-73
2022/07/21 04:59:07;;;;;;;12.63;9.63;;;;;;;19.19;75.32;101612.03;5059194;28;20071;-73
2022/07/21 05:01:32;;;;;;;10.93;8.13;;;;;;;19.19;74.88;101612.88;5065786;28;20535;-73
2022/07/21 05:03:57;;;;;;;11.82;8.48;;;;;;;19.20;74.46;101611.09;5063412;28;20492;-73
2022/07/21 05:06:23;;;;;;;11.95;8.38;;;;;;;19.19;74.99;101612.88;5072183;28;20027;-73
2022/07/21 05:08:48;;;;;;;13.13;8.52;;;;;;;19.19;74.93;101618.13;5069482;28;20456;-73
2022/07/21 05:11:14;;;;;;;11.23;8.23;;;;;;;19.19;74.80;101623.41;5068495;28;20028;-73
2022/07/21 05:13:39;;;;;;;13.77;8.05;;;;;;;19.16;75.05;101612.19;5063036;28;20040;-73
2022/07/21 05:16:05;;;;;;;11.43;7.90;;;;;;;19.16;75.44;101613.00;5066026;28;20042;-73
2022/07/21 05:18:31;;;;;;;10.43;7.85;;;;;;;19.16;75.50;101620.94;5064530;28;20553;-73
2022/07/21 05:20:57;;;;;;;11.18;7.78;;;;;;;19.13;75.76;101618.44;5058877;28;20021;-73
2022/07/21 05:23:22;;;;;;;11.43;7.88;;;;;;;19.17;75.60;101620.00;5065746;28;20016;-73
2022/07/21 05:25:47;;;;;;;10.63;7.18;;;;;;;19.18;75.81;101624.34;5065714;28;20139;-73
2022/07/21 05:28:13;;;;;;;11.45;7.70;;;;;;;19.19;75.88;101617.31;5064232;28;20036;-73
2022/07/21 05:30:38;;;;;;;10.02;7.40;;;;;;;19.20;76.06;101622.50;5063114;28;20519;-73
2022/07/21 05:33:03;;;;;;;9.85;7.05;;;;;;;19.22;75.99;101618.00;5045656;28;20025;-73
2022/07/21 05:35:29;;;;;;;10.52;7.50;;;;;;;19.24;75.66;101621.41;5066293;28;20025;-73
2022/07/21 05:37:54;;;;;;;10.57;7.40;;;;;;;19.26;75.87;101621.31;5063177;28;20119;-73
2022/07/21 05:40:19;;;;;;;10.60;7.30;;;;;;;19.26;75.75;101613.41;5072800;28;20054;-73
2022/07/21 05:42:44;;;;;;;9.60;7.50;;;;;;;19.26;75.97;101603.72;5063756;28;20028;-73
2022/07/21 05:45:11;;;;;;;9.27;7.50;;;;;;;19.27;76.16;101599.28;5069570;28;20032;-74
2022/07/21 05:47:37;;;;;;;9.20;7.25;;;;;;;19.28;75.31;101594.88;5070748;28;20395;-73
2022/07/21 05:50:02;;;;;;;11.52;7.47;;;;;;;19.29;75.83;101607.16;5069053;28;20028;-73
2022/07/21 05:52:28;;;;;;;10.75;7.47;;;;;;;19.28;75.39;101608.91;5064236;28;20103;-73
2022/07/21 05:54:53;;;;;;;13.15;7.30;;;;;;;19.27;75.50;101601.94;5067188;28;20088;-73
2022/07/21 05:57:18;;;;;;;11.07;7.18;;;;;;;19.26;75.49;101606.38;5067690;28;20032;-74
2022/07/21 05:59:45;;;;;;;10.73;7.13;;;;;;;19.26;75.51;101602.84;5074079;28;20036;-73
2022/07/21 06:02:10;;;;;;;12.50;6.93;;;;;;;19.24;75.40;101596.81;5062618;28;20025;-73
2022/07/21 06:04:35;;;;;;;9.38;6.80;;;;;;;19.23;75.49;101601.25;5061494;28;20028;-73
2022/07/21 06:07:00;;;;;;;10.52;7.20;;;;;;;19.22;75.22;101594.25;5062263;28;20035;-73
2022/07/21 06:09:26;;;;;;;9.60;6.68;;;;;;;19.23;75.92;101600.38;5063551;28;20028;-73
2022/07/21 06:11:51;;;;;;;11.93;6.75;;;;;;;19.24;75.41;101604.72;5066905;28;20028;-73
2022/07/21 06:14:16;;;;;;;11.25;7.13;;;;;;;19.22;75.31;101612.72;5060751;28;20541;-73
2022/07/21 06:16:42;;;;;;;9.88;7.68;;;;;;;19.23;75.74;101609.16;5063575;28;20035;-74
2022/07/21 06:19:07;;;;;;;11.90;7.50;;;;;;;19.24;75.17;101610.84;5060553;28;20052;-73
2022/07/21 06:21:33;;;;;;;9.93;7.30;;;;;;;19.22;75.18;101604.81;5064241;28;20066;-74
2022/07/21 06:23:59;;;;;;;10.30;7.80;;;;;;;19.25;75.63;101611.69;5064393;28;20537;-74
2022/07/21 06:26:24;;;;;;;7.28;6.07;;;;;;;19.48;74.55;101605.25;5060980;28;20078;-74
2022/07/21 06:28:49;;;;;;;7.50;5.47;;;;;;;19.71;73.90;101605.84;5064831;28;20055;-74
2022/07/21 06:31:15;;;;;;;7.60;5.32;;;;;;;19.94;72.57;101603.84;5049526;28;20020;-73
2022/07/21 06:33:40;;;;;;;8.48;6.28;;;;;;;20.10;71.88;101602.06;5066982;28;20028;-73
2022/07/21 06:36:06;;;;;;;7.72;5.85;;;;;;;20.27;71.29;101610.88;5067938;28;20078;-73
2022/07/21 06:38:31;;;;;;;9.95;7.25;;;;;;;20.36;70.76;101613.00;5067140;28;20029;-74
2022/07/21 06:40:57;;;;;;;10.13;6.68;;;;;;;20.40;70.92;101613.69;5068357;28;20145;-74
2022/07/21 06:43:22;;;;;;;11.27;7.88;;;;;;;20.40;70.69;101611.91;5065505;28;20035;-74
2022/07/21 06:45:47;;;;;;;11.68;7.93;;;;;;;20.39;70.87;101617.28;5067874;28;20382;-73
2022/07/21 06:48:12;;;;;;;11.13;7.57;;;;;;;20.40;70.44;101621.63;5063567;28;20030;-73
2022/07/21 06:50:38;;;;;;;15.75;9.05;;;;;;;20.37;70.74;101622.63;5074541;28;20108;-74
2022/07/21 06:53:05;;;;;;;14.10;9.38;;;;;;;20.30;71.09;101621.28;5049044;28;20428;-74
2022/07/21 06:55:30;;;;;;;14.32;10.07;;;;;;;20.27;71.94;101617.00;5066250;28;20024;-74
2022/07/21 06:57:56;;;;;;;14.70;10.63;;;;;;;20.24;71.57;101616.31;5061425;28;20028;-73
2022/07/21 07:00:22;;;;;;;16.90;11.55;;;;;;;20.22;72.64;101621.69;5065164;28;20750;-74
2022/07/21 07:02:47;;;;;;;17.85;11.85;;;;;;;20.26;71.91;101617.94;5066762;28;20039;-74
2022/07/21 07:05:13;;;;;;;19.67;12.15;;;;;;;20.34;72.66;101630.72;5064155;28;20079;-74
2022/07/21 07:07:38;;;;;;;21.08;12.90;;;;;;;20.38;71.14;101624.34;5062863;28;20398;-74
2022/07/21 07:10:04;;;;;;;20.75;14.18;;;;;;;20.35;70.67;101618.38;5061786;28;20328;-74
2022/07/21 07:12:30;;;;;;;19.10;13.68;;;;;;;20.27;70.52;101618.78;5064421;28;20028;-74
2022/07/21 07:14:55;;;;;;;20.02;13.68;;;;;;;20.20;70.98;101617.41;5061889;28;20021;-74
2022/07/21 07:17:20;;;;;;;21.45;13.45;;;;;;;20.19;72.30;101618.34;5067610;28;20020;-74
2022/07/21 07:19:46;;;;;;;20.33;13.23;;;;;;;20.16;71.46;101614.09;5065182;28;20079;-74
2022/07/21 07:22:12;;;;;;;19.10;12.65;;;;;;;20.19;71.10;101621.00;5063386;28;20075;-73
2022/07/21 07:24:37;;;;;;;18.65;13.05;;;;;;;20.19;71.35;101618.34;5061581;28;20460;-73
2022/07/21 07:27:03;;;;;;;20.50;13.35;;;;;;;20.15;71.66;101623.78;5065033;28;20025;-73
2022/07/21 07:29:28;;;;;;;20.40;12.93;;;;;;;;;;5061602;28;20383;-73
2022/07/21 07:31:55;;;;;;;17.55;12.77;;;;;;;20.13;71.93;101620.41;5060674;28;20032;-74
2022/07/21 07:34:21;;;;;;;17.38;11.73;;;;;;;20.13;71.71;101623.03;5061246;28;20028;-74
2022/07/21 07:36:46;;;;;;;19.35;12.27;;;;;;;20.13;71.42;101630.97;5062338;28;20028;-74
2022/07/21 07:39:12;;;;;;;17.63;12.80;;;;;;;20.12;71.67;101623.97;5056759;28;20048;-74
2022/07/21 07:41:37;;;;;;;23.13;12.80;;;;;;;20.13;71.14;101622.19;5057981;28;20052;-74
2022/07/21 07:44:03;;;;;;;18.17;12.57;;;;;;;20.10;71.56;101630.25;5061166;28;20464;-74
2022/07/21 07:46:28;;;;;;;18.55;11.65;;;;;;;20.11;71.53;101622.28;5063561;28;20158;-74
2022/07/21 07:48:53;;;;;;;20.02;11.88;;;;;;;20.13;71.67;101622.19;5061483;28;20464;-74
2022/07/21 07:51:19;;;;;;;17.55;11.13;;;;;;;20.19;72.20;101624.50;5060290;28;20024;-73
2022/07/21 07:53:44;;;;;;;17.08;11.27;;;;;;;20.26;71.33;101625.03;5061313;28;20029;-74
2022/07/21 07:56:10;;;;;;;19.30;11.65;;;;;;;20.30;70.89;101621.28;5060185;28;20151;-73
2022/07/21 07:58:35;;;;;;;16.58;10.88;;;;;;;20.39;71.16;101628.69;5060144;28;20028;-74
2022/07/21 08:01:00;;;;;;;14.75;10.75;;;;;;;20.45;70.64;101628.38;5059727;28;20103;-74
2022/07/21 08:03:27;;;;;;;17.02;11.00;;;;;;;20.55;71.32;101631.34;5059050;28;20024;-74
2022/07/21 08:05:54;;;;;;;17.05;10.90;;;;;;;20.63;70.62;101636.22;5057985;28;20025;-73
2022/07/21 08:08:21;;;;;;;16.33;10.93;;;;;;;20.61;69.63;101632.81;5055058;28;20052;-74
2022/07/21 08:10:46;;;;;;;13.90;9.45;;;;;;;20.54;70.16;101631.41;5057343;28;20475;-74
2022/07/21 08:13:13;;;;;;;14.00;9.90;;;;;;;20.46;70.14;101624.78;5052243;28;20032;-74
2022/07/21 08:15:39;;;;;;;10.98;8.70;;;;;;;20.34;70.82;101633.38;5058175;28;20039;-73
2022/07/21 08:18:06;;;;;;;13.00;8.07;;;;;;;20.29;70.85;101644.19;5058507;28;20030;-74
2022/07/21 08:20:31;;;;;;;9.80;7.15;;;;;;;20.23;71.22;101647.19;5057209;28;20033;-73
2022/07/21 08:22:56;;;;;;;8.98;6.43;;;;;;;20.13;71.99;101646.81;5059028;28;20029;-74
2022/07/21 08:25:22;;;;;;;8.65;5.68;;;;;;;20.08;72.11;101651.50;5040650;28;20020;-75
2022/07/21 08:27:47;;;;;;;8.23;4.95;;;;;;;19.97;72.71;101652.06;5061913;28;20044;-74
2022/07/21 08:30:13;;;;;;;8.43;4.80;;;;;;;19.89;73.42;101648.97;5058656;28;20107;-75
2022/07/21 08:32:38;;;;;;;5.85;4.40;;;;;;;19.76;74.76;101647.84;5059869;28;20469;-74
2022/07/21 08:35:08;;;;;;;6.43;4.38;;;;;;;19.66;75.33;101644.84;5060200;28;20024;-74
2022/07/21 08:37:35;;;;;;;6.50;4.20;;;;;;;19.55;75.94;101651.53;5060662;28;20028;-74
2022/07/21 08:40:01;;;;;;;7.38;4.70;;;;;;;19.46;76.23;101654.66;5054585;28;20233;-74
2022/07/21 08:42:26;;;;;;;6.78;4.40;;;;;;;19.42;76.61;101651.28;5055476;28;20132;-74
2022/07/21 08:44:52;;;;;;;6.68;4.03;;;;;;;19.40;76.29;101649.66;5054865;28;20064;-74
2022/07/21 08:47:17;;;;;;;7.28;4.30;;;;;;;19.35;76.92;101654.31;5043557;28;20487;-74
2022/07/21 08:49:46;;;;;;;5.78;4.43;;;;;;;19.32;77.15;101644.78;5058547;28;20036;-75
2022/07/21 08:52:12;;;;;;;6.95;4.05;;;;;;;19.32;77.31;101651.81;5060203;28;20055;-74
2022/07/21 08:54:37;;;;;;;5.32;4.05;;;;;;;19.32;77.45;101643.91;5060598;28;20060;-74
2022/07/21 08:57:03;;;;;;;5.50;3.75;;;;;;;19.31;77.44;101643.06;5060638;28;20038;-74
2022/07/21 08:59:28;;;;;;;5.32;3.65;;;;;;;19.26;77.73;101645.94;5061219;28;20465;-74
2022/07/21 09:01:54;;;;;;;4.93;3.70;;;;;;;19.23;78.00;101651.34;5058693;28;20446;-75
2022/07/21 09:04:21;;;;;;;4.30;3.60;;;;;;;19.22;78.21;101649.66;5054885;28;20037;-74
2022/07/21 09:06:56;;;;;;;5.38;3.45;;;;;;;19.24;78.26;101641.66;5058806;28;20036;-75
2022/07/21 09:09:22;;;;;;;5.10;3.33;;;;;;;19.25;78.29;101640.72;5062343;28;20028;-74
2022/07/21 09:11:48;;;;;;;4.10;3.42;;;;;;;19.23;78.68;101639.94;5059012;28;20025;-74
2022/07/21 09:14:18;;;;;;;3.97;3.25;;;;;;;19.22;78.81;101639.09;5058354;28;20029;-75
2022/07/21 09:16:49;;;;;;;5.82;3.47;;;;;;;19.23;78.52;101640.81;5064896;28;20116;-75
2022/07/21 09:19:28;;;;;;;4.20;3.42;;;;;;;19.22;78.29;101633.81;5060782;28;21429;-75
2022/07/21 09:21:56;;;;;;;4.25;3.30;;;;;;;19.22;79.11;101646.13;5040477;28;20113;-75
2022/07/21 09:24:39;;;;;;;5.57;3.47;;;;;;;19.23;78.24;101645.22;5060236;28;20046;-74
2022/07/21 09:27:14;;;;;;;5.30;3.30;;;;;;;19.18;79.14;101648.09;5059376;28;20106;-75
2022/07/21 09:29:53;;;;;;;4.47;3.60;;;;;;;19.19;78.84;101646.31;5065461;28;20032;-74
2022/07/21 09:32:36;;;;;;;4.20;3.10;;;;;;;19.19;78.75;101659.50;5057521;28;20051;-74
2022/07/21 09:35:09;;;;;;;4.28;3.10;;;;;;;19.17;80.12;101651.66;5034884;28;20514;-75
2022/07/21 09:37:36;;;;;;;5.38;4.28;;;;;;;19.06;80.83;101653.97;5058385;28;20036;-74
2022/07/21 09:40:10;;;;;;;4.90;3.80;;;;;;;18.74;82.75;101658.97;5061510;28;20067;-74
2022/07/21 09:42:42;;;;;;;5.57;4.45;;;;;;;18.38;85.09;101657.97;5059329;28;20446;-74
2022/07/21 09:45:15;;;;;;;5.97;4.70;;;;;;;18.22;86.72;101664.84;5057313;28;20490;-75
2022/07/21 09:47:41;;;;;;;6.78;5.13;;;;;;;18.10;88.09;101663.66;5062438;28;20086;-75
2022/07/21 09:50:09;;;;;;;8.70;5.53;;;;;;;18.08;87.23;101670.75;5060604;28;20024;-75
2022/07/21 09:52:39;;;;;;;8.02;5.38;;;;;;;18.01;86.52;101668.38;5061296;28;20032;-75
2022/07/21 09:55:14;;;;;;;7.45;5.78;;;;;;;17.95;87.81;101675.66;5053889;28;20040;-75
2022/07/21 09:57:40;;;;;;;8.68;5.72;;;;;;;17.94;88.60;101668.69;5059211;28;20020;-75
2022/07/21 10:00:12;;;;;;;9.23;5.65;;;;;;;17.92;89.11;101671.41;5063230;28;20051;-75
2022/07/21 10:02:38;;;;;;;8.43;5.68;;;;;;;17.98;88.64;101680.84;5043594;28;20068;-75
2022/07/21 10:05:11;;;;;;;6.13;5.00;;;;;;;17.94;87.80;101676.59;5055837;28;20502;-75
2022/07/21 10:07:39;;;;;;;13.38;5.90;;;;;;;17.89;88.89;101684.69;5056661;28;20033;-75
2022/07/21 10:10:05;;;;;;;12.52;6.50;;;;;;;17.89;89.19;101687.31;5061314;28;20437;-75
2022/07/21 10:12:31;;;;;;;9.15;5.10;;;;;;;17.84;87.67;101686.66;5042065;28;20032;-75
2022/07/21 10:14:56;;;;;;;10.20;5.35;;;;;;;17.80;88.18;101688.56;5061647;28;20041;-75
2022/07/21 10:17:24;;;;;;;8.23;4.88;;;;;;;17.79;88.57;101691.25;5058029;28;20468;-75
2022/07/21 10:20:02;;;;;;;6.93;4.63;;;;;;;17.84;88.11;101691.91;5062688;28;20404;-75
2022/07/21 10:22:44;;;;;;;8.73;5.18;;;;;;;17.87;88.97;101692.63;5064528;28;20434;-75
2022/07/21 10:25:09;;;;;;;14.40;4.97;;;;;;;17.93;88.20;101696.81;5043220;28;20047;-76
2022/07/21 10:27:35;;;;;;;7.05;5.00;;;;;;;17.93;88.44;101694.16;5060803;28;20060;-76
2022/07/21 10:30:05;;;;;;;5.75;5.10;;;;;;;17.93;89.08;101699.44;5063508;28;20021;-75
2022/07/21 10:32:34;;;;;;;8.88;4.97;;;;;;;17.91;88.45;101703.91;5065712;28;20442;-76
2022/07/21 10:35:21;;;;;;;6.53;3.80;;;;;;;17.89;88.13;101708.38;5069982;28;20025;-75
2022/07/21 10:37:47;;;;;;;8.35;4.07;;;;;;;17.86;87.74;101714.59;5068730;28;20028;-75
2022/07/21 10:40:13;;;;;;;5.50;4.20;;;;;;;17.85;87.59;101717.31;5064489;28;20025;-75
2022/07/21 10:42:38;;;;;;;7.55;4.13;;;;;;;17.80;88.31;101711.38;5053563;28;20178;-76
2022/07/21 10:45:29;;;;;;;7.07;4.30;;;;;;;17.85;88.41;101720.78;5068777;28;20460;-75
2022/07/21 10:47:54;;;;;;;7.18;4.78;;;;;;;17.90;89.27;101720.63;5066056;28;20024;-76
2022/07/21 10:50:35;;;;;;;6.32;3.95;;;;;;;17.95;88.49;101721.25;5067790;28;20490;-76
2022/07/21 10:53:05;;;;;;;6.85;4.60;;;;;;;17.94;88.92;101721.34;5069468;28;21111;-75
2022/07/21 10:55:34;;;;;;;7.72;3.58;;;;;;;18.05;88.57;101722.63;5066723;28;20063;-75
2022/07/21 10:58:22;;;;;;;4.47;3.38;;;;;;;18.17;86.84;101721.25;5058045;28;20078;-76
2022/07/21 11:00:50;;;;;;;6.75;3.88;;;;;;;18.18;86.41;101719.44;5058952;28;20111;-76
2022/07/21 11:03:28;;;;;;;7.63;3.22;;;;;;;18.24;85.90;101720.94;5060752;28;20154;-75
2022/07/21 11:06:23;;;;;;;7.78;3.28;;;;;;;18.34;84.35;101725.75;5061888;28;20403;-76
2022/07/21 11:09:06;;;;;;;7.63;3.65;;;;;;;18.45;83.96;101727.03;5064782;28;20040;-76
2022/07/21 11:11:36;;;;;;;3.95;3.13;;;;;;;18.59;83.32;101732.56;5060780;28;20040;-75
2022/07/21 11:14:09;;;;;;;5.32;3.63;;;;;;;18.70;82.71;101733.84;5060521;28;20074;-76
2022/07/21 11:16:52;;;;;;;5.15;3.20;;;;;;;18.78;82.50;101723.81;5057621;28;20032;-75
2022/07/21 11:19:37;;;;;;;4.32;3.40;;;;;;;18.84;82.35;101725.31;5057061;28;20070;-76
2022/07/21 11:22:21;;;;;;;5.75;3.80;;;;;;;18.85;81.14;101719.94;5059486;28;20025;-75